createdAt,value
2018-04-08T00:00:24.928Z,0.00
2018-04-08T00:01:24.886Z,0.00
2018-04-08T00:02:24.962Z,0.00
2018-04-08T00:03:24.975Z,0.00
2018-04-08T00:04:25.038Z,0.00
2018-04-08T00:05:25.189Z,0.00
2018-04-08T00:06:25.112Z,0.00
2018-04-08T00:07:25.188Z,0.00
2018-04-08T00:08:25.417Z,0.00
2018-04-08T00:09:25.273Z,0.00
2018-04-08T00:10:25.318Z,0.00
2018-04-08T00:11:25.457Z,0.00
2018-04-08T00:12:25.418Z,0.00
2018-04-08T00:13:25.464Z,0.00
2018-04-08T00:14:25.507Z,0.00
2018-04-08T00:15:25.548Z,0.00
2018-04-08T00:16:25.609Z,0.00
2018-04-08T00:17:25.766Z,0.00
2018-04-08T00:18:25.690Z,0.00
2018-04-08T00:19:25.725Z,0.00
2018-04-08T00:20:25.802Z,0.00
2018-04-08T00:21:25.842Z,0.00
2018-04-08T00:22:25.994Z,0.00
2018-04-08T00:23:25.919Z,0.00
2018-04-08T00:24:25.982Z,0.00
2018-04-08T00:25:26.039Z,0.00
2018-04-08T00:27:26.133Z,0.00
2018-04-08T00:28:26.283Z,0.00
2018-04-08T00:29:26.217Z,0.00
2018-04-08T00:30:26.292Z,0.00
2018-04-08T00:31:26.319Z,0.00
2018-04-08T00:32:26.363Z,0.00
2018-04-08T00:33:26.437Z,0.00
2018-04-08T00:34:26.577Z,0.00
2018-04-08T00:35:26.488Z,0.00
2018-04-08T00:36:26.557Z,0.00
2018-04-08T00:37:26.591Z,0.00
2018-04-08T00:38:26.677Z,0.00
2018-04-08T00:39:26.719Z,0.00
2018-04-08T00:40:26.781Z,0.00
2018-04-08T00:41:26.839Z,0.00
2018-04-08T00:42:26.837Z,0.00
2018-04-08T00:43:26.871Z,0.00
2018-04-08T00:45:27.123Z,0.00
2018-04-08T00:46:27.041Z,0.00
2018-04-08T00:47:27.076Z,0.00
2018-04-08T00:48:27.116Z,0.00
2018-04-08T00:49:27.178Z,0.00
2018-04-08T00:50:27.232Z,0.00
2018-04-08T00:51:27.296Z,0.00
2018-04-08T00:52:27.314Z,0.00
2018-04-08T00:53:27.562Z,0.00
2018-04-08T00:54:27.434Z,0.00
2018-04-08T00:55:27.644Z,0.00
2018-04-08T00:56:27.616Z,0.00
2018-04-08T00:57:27.649Z,0.00
2018-04-08T00:58:27.598Z,0.00
2018-04-08T00:59:27.650Z,0.00
2018-04-08T01:00:27.721Z,0.00
2018-04-08T01:02:27.789Z,0.00
2018-04-08T01:03:27.837Z,0.00
2018-04-08T01:04:27.880Z,0.00
2018-04-08T01:05:27.931Z,0.00
2018-04-08T01:06:27.981Z,0.00
2018-04-08T01:07:28.128Z,0.00
2018-04-08T01:08:28.070Z,0.00
2018-04-08T01:09:28.126Z,0.00
2018-04-08T01:11:28.229Z,0.00
2018-04-08T01:12:28.391Z,0.00
2018-04-08T01:13:28.310Z,0.00
2018-04-08T01:14:28.371Z,0.00
2018-04-08T01:15:28.437Z,0.00
2018-04-08T01:16:28.459Z,0.00
2018-04-08T01:17:28.509Z,0.00
2018-04-08T01:18:28.538Z,0.00
2018-04-08T01:19:28.580Z,0.00
2018-04-08T01:20:28.640Z,0.00
2018-04-08T01:21:28.702Z,0.00
2018-04-08T01:22:28.749Z,0.00
2018-04-08T01:23:28.870Z,0.00
2018-04-08T01:24:28.822Z,0.00
2018-04-08T01:25:28.900Z,0.00
2018-04-08T01:27:28.972Z,0.00
2018-04-08T01:28:29.222Z,0.00
2018-04-08T01:29:29.253Z,0.00
2018-04-08T01:30:29.114Z,0.00
2018-04-08T01:31:29.159Z,0.00
2018-04-08T01:32:29.199Z,0.00
2018-04-08T01:33:29.269Z,0.00
2018-04-08T01:34:29.425Z,0.00
2018-04-08T01:35:29.468Z,0.00
2018-04-08T01:36:29.411Z,0.00
2018-04-08T01:38:29.503Z,0.00
2018-04-08T01:39:29.563Z,0.00
2018-04-08T01:40:29.607Z,0.00
2018-04-08T01:41:29.660Z,0.00
2018-04-08T01:42:29.690Z,0.00
2018-04-08T01:43:29.742Z,0.00
2018-04-08T01:44:29.804Z,0.00
2018-04-08T01:45:29.834Z,0.00
2018-04-08T01:46:30.199Z,0.00
2018-04-08T01:47:29.901Z,0.00
2018-04-08T01:48:29.958Z,0.00
2018-04-08T01:50:30.046Z,0.00
2018-04-08T01:51:30.223Z,0.00
2018-04-08T01:52:30.153Z,0.00
2018-04-08T01:53:30.189Z,0.00
2018-04-08T01:54:30.253Z,0.00
2018-04-08T01:55:30.298Z,0.00
2018-04-08T01:56:30.341Z,0.00
2018-04-08T01:57:30.471Z,0.00
2018-04-08T01:58:30.468Z,0.00
2018-04-08T01:59:30.476Z,0.00
2018-04-08T02:00:30.527Z,0.00
2018-04-08T02:01:30.566Z,0.00
2018-04-08T02:02:30.626Z,0.00
2018-04-08T02:03:30.791Z,0.00
2018-04-08T02:04:30.700Z,0.00
2018-04-08T02:05:30.778Z,0.00
2018-04-08T02:06:30.834Z,0.00
2018-04-08T02:07:30.849Z,0.00
2018-04-08T02:08:30.903Z,0.00
2018-04-08T02:09:31.080Z,0.00
2018-04-08T02:10:31.000Z,0.00
2018-04-08T02:11:31.054Z,0.00
2018-04-08T02:12:31.115Z,0.00
2018-04-08T02:13:31.159Z,0.00
2018-04-08T02:14:31.183Z,0.00
2018-04-08T02:15:31.350Z,0.00
2018-04-08T02:16:31.305Z,0.00
2018-04-08T02:17:31.334Z,0.00
2018-04-08T02:18:31.354Z,0.00
2018-04-08T02:19:31.436Z,0.00
2018-04-08T02:20:31.558Z,0.00
2018-04-08T02:21:31.528Z,0.00
2018-04-08T02:22:31.554Z,0.00
2018-04-08T02:23:31.618Z,0.00
2018-04-08T02:24:31.660Z,0.00
2018-04-08T02:25:31.722Z,0.00
2018-04-08T02:26:31.830Z,0.00
2018-04-08T02:27:31.779Z,0.00
2018-04-08T02:28:31.840Z,0.00
2018-04-08T02:29:31.898Z,0.00
2018-04-08T02:30:31.958Z,0.00
2018-04-08T02:31:31.989Z,0.00
2018-04-08T02:32:32.028Z,0.00
2018-04-08T02:33:32.067Z,0.00
2018-04-08T02:34:32.136Z,0.00
2018-04-08T02:35:32.195Z,0.00
2018-04-08T02:36:32.301Z,0.00
2018-04-08T02:37:32.276Z,0.00
2018-04-08T02:38:32.320Z,0.00
2018-04-08T02:39:32.354Z,0.00
2018-04-08T02:40:32.409Z,0.00
2018-04-08T02:41:32.457Z,0.00
2018-04-08T02:42:32.593Z,0.00
2018-04-08T02:44:32.589Z,0.00
2018-04-08T02:45:32.668Z,0.00
2018-04-08T02:46:32.681Z,0.00
2018-04-08T02:48:32.863Z,0.00
2018-04-08T02:49:33.013Z,0.00
2018-04-08T02:50:32.887Z,0.00
2018-04-08T02:51:32.918Z,0.00
2018-04-08T02:52:32.991Z,0.00
2018-04-08T02:53:33.007Z,0.00
2018-04-08T02:54:33.053Z,0.00
2018-04-08T02:55:33.094Z,0.00
2018-04-08T02:56:33.174Z,0.00
2018-04-08T02:57:33.213Z,0.00
2018-04-08T02:58:33.343Z,0.00
2018-04-08T02:59:33.309Z,0.00
2018-04-08T03:00:33.350Z,0.00
2018-04-08T03:01:33.405Z,0.00
2018-04-08T03:02:33.428Z,0.00
2018-04-08T03:03:33.593Z,0.00
2018-04-08T03:04:33.565Z,0.00
2018-04-08T03:05:33.587Z,0.00
2018-04-08T03:06:33.609Z,0.00
2018-04-08T03:07:33.671Z,0.00
2018-04-08T03:08:33.721Z,0.00
2018-04-08T03:09:33.770Z,0.00
2018-04-08T03:10:33.835Z,0.00
2018-04-08T03:11:33.870Z,0.00
2018-04-08T03:12:33.896Z,0.00
2018-04-08T03:13:34.155Z,0.00
2018-04-08T03:15:34.042Z,0.00
2018-04-08T03:16:34.069Z,0.00
2018-04-08T03:17:34.144Z,0.00
2018-04-08T03:18:34.213Z,0.00
2018-04-08T03:19:34.332Z,0.00
2018-04-08T03:20:34.258Z,0.00
2018-04-08T03:21:34.353Z,0.00
2018-04-08T03:22:34.377Z,0.00
2018-04-08T03:23:34.437Z,0.00
2018-04-08T03:24:34.483Z,0.00
2018-04-08T03:25:34.594Z,0.00
2018-04-08T03:26:34.564Z,0.00
2018-04-08T03:27:34.593Z,0.00
2018-04-08T03:28:34.655Z,0.00
2018-04-08T03:29:34.691Z,0.00
2018-04-08T03:30:34.864Z,0.00
2018-04-08T03:31:34.799Z,0.00
2018-04-08T03:32:34.861Z,0.00
2018-04-08T03:33:34.905Z,0.00
2018-04-08T03:34:34.930Z,0.00
2018-04-08T03:35:34.952Z,0.00
2018-04-08T03:36:35.116Z,0.00
2018-04-08T03:37:35.083Z,0.00
2018-04-08T03:38:35.113Z,0.00
2018-04-08T03:39:35.163Z,0.00
2018-04-08T03:40:35.224Z,0.00
2018-04-08T03:41:35.428Z,0.00
2018-04-08T03:42:35.292Z,0.00
2018-04-08T03:43:35.383Z,0.00
2018-04-08T03:44:35.403Z,0.00
2018-04-08T03:45:35.437Z,0.00
2018-04-08T03:46:35.474Z,0.00
2018-04-08T03:47:35.548Z,0.00
2018-04-08T03:48:35.561Z,0.00
2018-04-08T03:49:35.636Z,0.00
2018-04-08T03:50:35.678Z,0.00
2018-04-08T03:51:35.808Z,0.00
2018-04-08T03:52:35.880Z,0.00
2018-04-08T03:53:35.834Z,0.00
2018-04-08T03:55:35.919Z,0.00
2018-04-08T03:56:35.970Z,0.00
2018-04-08T03:57:36.020Z,0.00
2018-04-08T03:58:36.084Z,0.00
2018-04-08T03:59:36.088Z,0.00
2018-04-08T04:00:36.154Z,0.00
2018-04-08T04:01:36.177Z,0.00
2018-04-08T04:02:36.336Z,0.00
2018-04-08T04:03:36.290Z,0.00
2018-04-08T04:04:36.327Z,0.00
2018-04-08T04:05:36.352Z,0.00
2018-04-08T04:06:36.636Z,0.00
2018-04-08T04:07:36.559Z,0.00
2018-04-08T04:08:36.520Z,0.00
2018-04-08T04:09:36.555Z,0.00
2018-04-08T04:10:36.609Z,0.00
2018-04-08T04:11:36.669Z,0.00
2018-04-08T04:12:36.697Z,0.00
2018-04-08T04:13:36.746Z,0.00
2018-04-08T04:14:36.813Z,0.00
2018-04-08T04:15:36.842Z,0.00
2018-04-08T04:16:36.866Z,0.00
2018-04-08T04:17:36.950Z,0.00
2018-04-08T04:18:37.082Z,0.00
2018-04-08T04:19:37.020Z,0.00
2018-04-08T04:20:37.065Z,0.00
2018-04-08T04:21:37.098Z,0.00
2018-04-08T04:22:37.199Z,0.00
2018-04-08T04:23:37.187Z,0.00
2018-04-08T04:24:37.239Z,0.00
2018-04-08T04:25:37.497Z,0.00
2018-04-08T04:26:37.334Z,0.00
2018-04-08T04:27:37.401Z,0.00
2018-04-08T04:29:37.464Z,0.00
2018-04-08T04:30:37.552Z,0.00
2018-04-08T04:31:37.583Z,0.00
2018-04-08T04:32:37.651Z,0.00
2018-04-08T04:33:37.976Z,0.00
2018-04-08T04:34:37.740Z,0.00
2018-04-08T04:35:37.784Z,0.00
2018-04-08T04:36:37.813Z,0.00
2018-04-08T04:37:37.890Z,0.00
2018-04-08T04:38:37.899Z,0.00
2018-04-08T04:39:37.944Z,0.00
2018-04-08T04:40:38.091Z,0.00
2018-04-08T04:41:38.059Z,0.00
2018-04-08T04:42:38.299Z,0.00
2018-04-08T04:43:38.123Z,0.00
2018-04-08T04:44:38.179Z,0.00
2018-04-08T04:45:38.445Z,0.00
2018-04-08T04:46:38.369Z,0.00
2018-04-08T04:47:38.316Z,0.00
2018-04-08T04:48:38.361Z,0.00
2018-04-08T04:49:38.433Z,0.00
2018-04-08T04:50:38.480Z,0.00
2018-04-08T04:51:38.607Z,0.00
2018-04-08T04:52:38.547Z,0.00
2018-04-08T04:53:38.611Z,0.00
2018-04-08T04:54:38.638Z,0.00
2018-04-08T04:55:38.706Z,0.00
2018-04-08T04:56:38.733Z,0.00
2018-04-08T04:57:38.799Z,0.00
2018-04-08T04:58:38.837Z,0.00
2018-04-08T04:59:38.907Z,0.00
2018-04-08T05:00:38.931Z,0.00
2018-04-08T05:01:39.064Z,0.00
2018-04-08T05:02:39.002Z,0.00
2018-04-08T05:03:39.111Z,0.00
2018-04-08T05:04:39.089Z,0.00
2018-04-08T05:05:39.178Z,0.00
2018-04-08T05:06:39.201Z,0.00
2018-04-08T05:07:39.356Z,0.00
2018-04-08T05:08:39.315Z,0.00
2018-04-08T05:09:39.410Z,0.00
2018-04-08T05:10:39.476Z,0.00
2018-04-08T05:11:39.454Z,0.00
2018-04-08T05:12:39.482Z,0.00
2018-04-08T05:13:39.534Z,0.00
2018-04-08T05:14:39.580Z,0.00
2018-04-08T05:15:39.612Z,0.00
2018-04-08T05:16:39.667Z,0.00
2018-04-08T05:17:39.713Z,0.00
2018-04-08T05:18:39.867Z,0.00
2018-04-08T05:19:39.906Z,0.00
2018-04-08T05:20:39.842Z,0.00
2018-04-08T05:21:39.934Z,0.00
2018-04-08T05:22:39.958Z,0.00
2018-04-08T05:23:39.985Z,0.00
2018-04-08T05:25:40.063Z,0.00
2018-04-08T05:26:40.117Z,0.00
2018-04-08T05:27:40.174Z,0.00
2018-04-08T05:28:40.237Z,0.00
2018-04-08T05:29:40.288Z,0.00
2018-04-08T05:30:40.421Z,0.00
2018-04-08T05:31:40.463Z,0.00
2018-04-08T05:32:40.402Z,0.00
2018-04-08T05:33:40.471Z,0.00
2018-04-08T05:34:40.509Z,0.00
2018-04-08T05:35:40.563Z,0.00
2018-04-08T05:36:40.584Z,0.00
2018-04-08T05:37:40.769Z,0.00
2018-04-08T05:38:40.876Z,0.00
2018-04-08T05:39:40.742Z,0.00
2018-04-08T05:40:40.792Z,0.00
2018-04-08T05:41:40.801Z,0.00
2018-04-08T05:42:40.972Z,0.00
2018-04-08T05:43:40.904Z,0.00
2018-04-08T05:44:40.949Z,0.00
2018-04-08T05:45:41.034Z,0.00
2018-04-08T05:46:41.086Z,0.00
2018-04-08T05:47:41.101Z,0.00
2018-04-08T05:48:41.240Z,0.00
2018-04-08T05:49:41.180Z,0.00
2018-04-08T05:50:41.244Z,0.00
2018-04-08T05:51:41.270Z,0.00
2018-04-08T05:52:41.344Z,0.00
2018-04-08T05:53:41.376Z,0.00
2018-04-08T05:54:41.523Z,0.00
2018-04-08T05:55:41.451Z,0.00
2018-04-08T05:56:41.519Z,0.00
2018-04-08T05:57:41.568Z,0.00
2018-04-08T05:58:41.617Z,0.00
2018-04-08T05:59:41.654Z,0.00
2018-04-08T06:00:41.806Z,0.00
2018-04-08T06:01:41.730Z,0.00
2018-04-08T06:02:41.774Z,0.00
2018-04-08T06:03:41.853Z,0.00
2018-04-08T06:04:41.869Z,0.00
2018-04-08T06:05:41.937Z,0.00
2018-04-08T06:06:42.054Z,0.00
2018-04-08T06:07:42.022Z,0.00
2018-04-08T06:08:42.053Z,0.00
2018-04-08T06:09:42.308Z,0.00
2018-04-08T06:10:42.144Z,0.00
2018-04-08T06:11:42.228Z,0.00
2018-04-08T06:12:42.293Z,0.00
2018-04-08T06:13:42.284Z,0.00
2018-04-08T06:14:42.336Z,0.00
2018-04-08T06:15:42.388Z,0.00
2018-04-08T06:16:42.535Z,0.00
2018-04-08T06:17:42.476Z,0.00
2018-04-08T06:18:42.520Z,0.00
2018-04-08T06:19:42.596Z,0.00
2018-04-08T06:20:42.636Z,0.00
2018-04-08T06:21:42.783Z,0.00
2018-04-08T06:22:42.731Z,0.00
2018-04-08T06:23:42.761Z,0.00
2018-04-08T06:24:42.788Z,0.00
2018-04-08T06:25:42.859Z,0.00
2018-04-08T06:26:42.879Z,0.00
2018-04-08T06:27:42.969Z,0.00
2018-04-08T06:28:42.979Z,0.00
2018-04-08T06:29:43.022Z,0.00
2018-04-08T06:30:43.097Z,0.00
2018-04-08T06:31:43.215Z,0.00
2018-04-08T06:33:43.220Z,0.00
2018-04-08T06:34:43.263Z,0.00
2018-04-08T06:35:43.290Z,0.00
2018-04-08T06:36:43.460Z,0.00
2018-04-08T06:37:43.397Z,0.00
2018-04-08T06:38:43.449Z,0.00
2018-04-08T06:39:43.526Z,0.00
2018-04-08T06:40:43.527Z,0.00
2018-04-08T06:41:43.609Z,0.00
2018-04-08T06:42:43.731Z,0.00
2018-04-08T06:43:43.665Z,0.00
2018-04-08T06:44:43.723Z,0.00
2018-04-08T06:45:43.763Z,0.00
2018-04-08T06:46:43.851Z,0.00
2018-04-08T06:47:43.902Z,0.00
2018-04-08T06:48:43.952Z,0.00
2018-04-08T06:49:43.958Z,0.00
2018-04-08T06:50:43.982Z,0.00
2018-04-08T06:51:44.013Z,0.00
2018-04-08T06:52:44.141Z,0.00
2018-04-08T06:53:44.203Z,0.00
2018-04-08T06:54:44.292Z,0.00
2018-04-08T06:55:44.424Z,0.00
2018-04-08T06:56:44.286Z,0.00
2018-04-08T06:57:44.293Z,0.00
2018-04-08T06:58:44.365Z,0.00
2018-04-08T06:59:44.601Z,0.00
2018-04-08T07:00:44.435Z,0.00
2018-04-08T07:01:44.481Z,0.00
2018-04-08T07:02:44.528Z,0.00
2018-04-08T07:03:44.560Z,0.00
2018-04-08T07:04:44.750Z,0.00
2018-04-08T07:05:44.770Z,0.00
2018-04-08T07:06:44.723Z,0.00
2018-04-08T07:07:44.757Z,0.00
2018-04-08T07:08:44.820Z,0.00
2018-04-08T07:09:44.859Z,0.00
2018-04-08T07:10:44.920Z,0.00
2018-04-08T07:11:44.931Z,0.00
2018-04-08T07:12:44.991Z,0.00
2018-04-08T07:13:45.014Z,0.00
2018-04-08T07:14:45.091Z,0.00
2018-04-08T07:15:45.134Z,0.00
2018-04-08T07:16:45.271Z,0.00
2018-04-08T07:17:45.350Z,0.00
2018-04-08T07:18:45.293Z,0.00
2018-04-08T07:19:45.317Z,0.00
2018-04-08T07:20:45.366Z,0.00
2018-04-08T07:21:45.408Z,0.00
2018-04-08T07:22:45.445Z,0.00
2018-04-08T07:23:45.502Z,0.00
2018-04-08T07:24:45.557Z,0.00
2018-04-08T07:25:45.606Z,0.00
2018-04-08T07:26:45.623Z,0.00
2018-04-08T07:27:45.670Z,0.00
2018-04-08T07:28:45.808Z,0.00
2018-04-08T07:29:45.785Z,0.00
2018-04-08T07:30:45.843Z,0.00
2018-04-08T07:31:45.850Z,0.00
2018-04-08T07:32:45.888Z,0.00
2018-04-08T07:33:46.069Z,0.00
2018-04-08T07:34:45.990Z,0.00
2018-04-08T07:35:46.018Z,0.00
2018-04-08T07:36:46.090Z,0.00
2018-04-08T07:37:46.135Z,0.00
2018-04-08T07:38:46.196Z,0.00
2018-04-08T07:39:46.225Z,0.00
2018-04-08T07:40:46.260Z,0.00
2018-04-08T07:41:46.341Z,0.00
2018-04-08T07:42:46.348Z,0.00
2018-04-08T07:43:46.396Z,0.00
2018-04-08T07:45:46.682Z,0.00
2018-04-08T07:46:46.514Z,0.00
2018-04-08T07:47:46.592Z,0.00
2018-04-08T07:48:46.637Z,0.00
2018-04-08T07:49:46.802Z,0.00
2018-04-08T07:50:46.720Z,0.00
2018-04-08T07:51:46.799Z,0.00
2018-04-08T07:52:46.798Z,0.00
2018-04-08T07:53:46.849Z,0.00
2018-04-08T07:54:46.882Z,0.00
2018-04-08T07:56:47.013Z,0.00
2018-04-08T07:57:47.045Z,0.00
2018-04-08T07:58:47.085Z,0.00
2018-04-08T07:59:47.134Z,0.00
2018-04-08T08:00:47.185Z,0.00
2018-04-08T08:01:47.201Z,0.00
2018-04-08T08:02:47.284Z,0.00
2018-04-08T08:03:47.302Z,0.00
2018-04-08T08:04:47.364Z,0.00
2018-04-08T08:05:47.504Z,0.00
2018-04-08T08:06:47.448Z,0.00
2018-04-08T08:07:47.487Z,0.00
2018-04-08T08:08:47.536Z,0.00
2018-04-08T08:09:47.616Z,0.00
2018-04-08T08:10:47.642Z,0.00
2018-04-08T08:11:47.778Z,0.00
2018-04-08T08:12:47.740Z,0.00
2018-04-08T08:13:47.766Z,0.00
2018-04-08T08:14:47.828Z,0.00
2018-04-08T08:15:47.879Z,0.00
2018-04-08T08:16:47.936Z,0.00
2018-04-08T08:17:47.942Z,0.00
2018-04-08T08:18:47.995Z,0.00
2018-04-08T08:19:48.033Z,0.00
2018-04-08T08:20:48.084Z,0.00
2018-04-08T08:21:48.149Z,0.00
2018-04-08T08:22:48.287Z,0.00
2018-04-08T08:23:48.226Z,0.00
2018-04-08T08:24:48.261Z,0.00
2018-04-08T08:25:48.298Z,0.00
2018-04-08T08:26:48.333Z,0.00
2018-04-08T08:27:48.438Z,0.00
2018-04-08T08:28:48.543Z,0.00
2018-04-08T08:30:48.532Z,0.00
2018-04-08T08:31:48.565Z,0.00
2018-04-08T08:32:48.636Z,0.00
2018-04-08T08:33:48.690Z,0.00
2018-04-08T08:34:48.707Z,0.00
2018-04-08T08:35:48.789Z,0.00
2018-04-08T08:36:48.838Z,0.00
2018-04-08T08:37:48.860Z,0.00
2018-04-08T08:38:48.887Z,0.00
2018-04-08T08:39:49.044Z,0.00
2018-04-08T08:40:49.002Z,0.00
2018-04-08T08:41:49.049Z,0.00
2018-04-08T08:42:49.306Z,0.00
2018-04-08T08:43:49.149Z,0.00
2018-04-08T08:44:49.270Z,0.00
2018-04-08T08:45:49.228Z,0.00
2018-04-08T08:46:49.274Z,0.00
2018-04-08T08:47:49.314Z,0.00
2018-04-08T08:48:49.366Z,0.00
2018-04-08T08:49:49.399Z,0.00
2018-04-08T08:50:49.551Z,0.00
2018-04-08T08:51:49.498Z,0.00
2018-04-08T08:52:49.773Z,4.00
2018-04-08T08:53:49.571Z,0.00
2018-04-08T08:54:49.641Z,4.00
2018-04-08T08:55:49.678Z,8.00
2018-04-08T08:56:49.723Z,8.00
2018-04-08T08:57:49.772Z,8.00
2018-04-08T08:58:49.826Z,8.00
2018-04-08T08:59:49.855Z,12.00
2018-04-08T09:00:49.994Z,16.00
2018-04-08T09:01:50.039Z,20.00
2018-04-08T09:02:49.987Z,28.00
2018-04-08T09:03:50.051Z,36.00
2018-04-08T09:04:50.096Z,48.00
2018-04-08T09:05:50.118Z,60.00
2018-04-08T09:06:50.223Z,72.00
2018-04-08T09:07:50.223Z,88.00
2018-04-08T09:08:50.285Z,112.00
2018-04-08T09:09:50.321Z,132.00
2018-04-08T09:10:50.367Z,152.00
2018-04-08T09:11:50.416Z,184.00
2018-04-08T09:12:50.567Z,232.00
2018-04-08T09:13:50.618Z,252.00
2018-04-08T09:14:50.560Z,284.00
2018-04-08T09:16:50.649Z,384.00
2018-04-08T09:17:50.691Z,420.00
2018-04-08T09:18:50.741Z,488.00
2018-04-08T09:19:50.889Z,540.00
2018-04-08T09:20:50.811Z,604.00
2018-04-08T09:21:50.863Z,656.00
2018-04-08T09:22:50.921Z,704.00
2018-04-08T09:23:50.943Z,816.00
2018-04-08T09:24:51.110Z,876.00
2018-04-08T09:25:51.057Z,972.00
2018-04-08T09:26:51.090Z,1084.00
2018-04-08T09:27:51.171Z,1072.00
2018-04-08T09:28:51.211Z,1056.00
2018-04-08T09:29:51.224Z,1132.00
2018-04-08T09:30:51.263Z,1208.00
2018-04-08T09:31:51.310Z,1208.00
2018-04-08T09:32:51.399Z,1352.00
2018-04-08T09:33:51.405Z,1596.00
2018-04-08T09:34:51.561Z,1860.00
2018-04-08T09:35:51.504Z,1972.00
2018-04-08T09:36:51.550Z,1856.00
2018-04-08T09:37:51.617Z,2008.00
2018-04-08T09:38:51.624Z,2084.00
2018-04-08T09:39:51.715Z,2188.00
2018-04-08T09:40:51.856Z,2196.00
2018-04-08T09:41:51.767Z,2064.00
2018-04-08T09:42:51.811Z,2104.00
2018-04-08T09:43:51.883Z,2416.00
2018-04-08T09:44:51.920Z,2744.00
2018-04-08T09:45:51.962Z,2952.00
2018-04-08T09:46:52.045Z,2808.00
2018-04-08T09:47:52.044Z,2692.00
2018-04-08T09:48:52.117Z,2888.00
2018-04-08T09:49:52.131Z,3304.00
2018-04-08T09:50:52.306Z,2800.00
2018-04-08T09:51:52.356Z,2788.00
2018-04-08T09:52:52.305Z,2908.00
2018-04-08T09:53:52.349Z,3088.00
2018-04-08T09:54:52.386Z,3336.00
2018-04-08T09:55:52.432Z,3368.00
2018-04-08T09:56:52.494Z,3320.00
2018-04-08T09:57:52.510Z,4036.00
2018-04-08T09:58:52.563Z,5372.00
2018-04-08T09:59:52.629Z,5720.00
2018-04-08T10:00:52.657Z,5796.00
2018-04-08T10:01:52.753Z,5424.00
2018-04-08T10:02:52.848Z,5408.00
2018-04-08T10:03:52.908Z,5420.00
2018-04-08T10:04:52.854Z,4648.00
2018-04-08T10:05:52.915Z,4704.00
2018-04-08T10:06:52.973Z,5724.00
2018-04-08T10:07:52.981Z,6056.00
2018-04-08T10:08:53.056Z,5564.00
2018-04-08T10:09:53.112Z,4936.00
2018-04-08T10:10:53.131Z,5024.00
2018-04-08T10:11:53.177Z,5388.00
2018-04-08T10:12:53.257Z,5860.00
2018-04-08T10:13:53.301Z,5984.00
2018-04-08T10:14:53.318Z,6308.00
2018-04-08T10:15:53.349Z,6092.00
2018-04-08T10:16:53.421Z,5596.00
2018-04-08T10:18:53.585Z,5412.00
2018-04-08T10:19:53.769Z,5040.00
2018-04-08T10:20:53.602Z,5044.00
2018-04-08T10:21:53.634Z,5908.00
2018-04-08T10:22:53.694Z,7296.00
2018-04-08T10:23:53.832Z,7948.00
2018-04-08T10:24:53.832Z,7708.00
2018-04-08T10:25:53.841Z,6948.00
2018-04-08T10:26:53.878Z,6596.00
2018-04-08T10:27:53.938Z,6752.00
2018-04-08T10:28:53.979Z,7684.00
2018-04-08T10:29:54.003Z,8464.00
2018-04-08T10:30:54.166Z,9160.00
2018-04-08T10:31:54.116Z,8712.00
2018-04-08T10:32:54.149Z,7036.00
2018-04-08T10:33:54.223Z,7188.00
2018-04-08T10:34:54.241Z,7332.00
2018-04-08T10:35:54.316Z,7768.00
2018-04-08T10:36:54.468Z,8604.00
2018-04-08T10:37:54.409Z,9560.00
2018-04-08T10:38:54.456Z,9816.00
2018-04-08T10:39:54.504Z,9392.00
2018-04-08T10:40:54.537Z,10756.00
2018-04-08T10:41:54.591Z,11372.00
2018-04-08T10:42:54.734Z,9836.00
2018-04-08T10:43:54.706Z,9564.00
2018-04-08T10:44:54.763Z,9868.00
2018-04-08T10:45:54.786Z,8916.00
2018-04-08T10:46:54.836Z,9180.00
2018-04-08T10:47:54.875Z,10112.00
2018-04-08T10:48:55.045Z,11580.00
2018-04-08T10:49:54.990Z,10888.00
2018-04-08T10:50:55.027Z,10996.00
2018-04-08T10:51:55.066Z,12136.00
2018-04-08T10:52:55.151Z,11536.00
2018-04-08T10:53:55.169Z,10856.00
2018-04-08T10:54:55.340Z,11136.00
2018-04-08T10:55:55.272Z,11112.00
2018-04-08T10:56:55.301Z,11016.00
2018-04-08T10:57:55.380Z,12472.00
2018-04-08T10:58:55.408Z,13548.00
2018-04-08T10:59:55.462Z,15588.00
2018-04-08T11:00:55.628Z,19264.00
2018-04-08T11:01:55.539Z,15728.00
2018-04-08T11:02:55.681Z,13088.00
2018-04-08T11:03:55.638Z,13032.00
2018-04-08T11:04:55.809Z,14876.00
2018-04-08T11:05:55.776Z,14336.00
2018-04-08T11:06:55.917Z,13896.00
2018-04-08T11:07:55.869Z,12244.00
2018-04-08T11:08:55.904Z,11604.00
2018-04-08T11:09:55.932Z,11960.00
2018-04-08T11:10:56.024Z,12232.00
2018-04-08T11:11:56.052Z,11340.00
2018-04-08T11:12:56.192Z,10472.00
2018-04-08T11:13:56.149Z,9424.00
2018-04-08T11:14:56.185Z,9420.00
2018-04-08T11:15:56.252Z,9952.00
2018-04-08T11:16:56.317Z,10268.00
2018-04-08T11:17:56.453Z,11124.00
2018-04-08T11:18:56.586Z,11952.00
2018-04-08T11:19:56.432Z,12304.00
2018-04-08T11:20:56.483Z,12768.00
2018-04-08T11:21:56.540Z,13148.00
2018-04-08T11:22:56.586Z,12128.00
2018-04-08T11:23:56.626Z,11376.00
2018-04-08T11:24:56.672Z,12608.00
2018-04-08T11:26:56.807Z,12744.00
2018-04-08T11:27:56.830Z,13100.00
2018-04-08T11:28:57.086Z,13788.00
2018-04-08T11:29:56.951Z,14412.00
2018-04-08T11:30:56.975Z,14720.00
2018-04-08T11:31:57.033Z,13996.00
2018-04-08T11:32:57.202Z,13792.00
2018-04-08T11:33:57.117Z,16532.00
2018-04-08T11:34:57.195Z,18400.00
2018-04-08T11:35:57.224Z,18976.00
2018-04-08T11:36:57.282Z,17984.00
2018-04-08T11:37:57.406Z,16712.00
2018-04-08T11:38:57.392Z,16624.00
2018-04-08T11:39:57.398Z,17920.00
2018-04-08T11:40:57.456Z,18688.00
2018-04-08T11:41:57.526Z,19296.00
2018-04-08T11:42:57.576Z,19648.00
2018-04-08T11:43:57.608Z,19424.00
2018-04-08T11:44:57.762Z,18048.00
2018-04-08T11:45:57.696Z,16712.00
2018-04-08T11:46:57.986Z,17600.00
2018-04-08T11:47:57.823Z,19264.00
2018-04-08T11:48:57.850Z,20608.00
2018-04-08T11:49:57.907Z,22944.00
2018-04-08T11:50:58.043Z,26240.00
2018-04-08T11:51:58.017Z,29664.00
2018-04-08T11:52:58.057Z,34656.00
2018-04-08T11:53:58.101Z,47872.00
2018-04-08T11:54:58.197Z,47488.00
2018-04-08T11:55:58.296Z,31328.00
2018-04-08T11:56:58.293Z,27904.00
2018-04-08T11:57:58.325Z,26240.00
2018-04-08T11:58:58.347Z,26016.00
2018-04-08T11:59:58.415Z,22112.00
2018-04-08T12:00:58.461Z,21952.00
2018-04-08T12:01:58.511Z,22880.00
2018-04-08T12:02:58.684Z,24672.00
2018-04-08T12:03:58.649Z,27744.00
2018-04-08T12:04:58.689Z,26560.00
2018-04-08T12:05:58.717Z,24352.00
2018-04-08T12:06:58.770Z,23232.00
2018-04-08T12:07:58.845Z,22240.00
2018-04-08T12:08:58.866Z,21664.00
2018-04-08T12:09:58.922Z,22912.00
2018-04-08T12:10:58.966Z,23296.00
2018-04-08T12:11:59.018Z,22112.00
2018-04-08T12:12:59.191Z,22400.00
2018-04-08T12:13:59.154Z,24128.00
2018-04-08T12:14:59.219Z,25568.00
2018-04-08T12:15:59.429Z,60640.00
2018-04-08T12:16:59.270Z,27424.00
2018-04-08T12:17:59.418Z,30592.00
2018-04-08T12:18:59.390Z,32000.00
2018-04-08T12:19:59.443Z,38432.00
2018-04-08T12:20:59.512Z,79424.00
2018-04-08T12:21:59.549Z,34112.00
2018-04-08T12:22:59.599Z,33472.00
2018-04-08T12:23:59.751Z,36096.00
2018-04-08T12:24:59.714Z,34304.00
2018-04-08T12:25:59.757Z,30208.00
2018-04-08T12:26:59.804Z,26720.00
2018-04-08T12:27:59.896Z,25312.00
2018-04-08T12:28:59.994Z,24672.00
2018-04-08T12:29:59.968Z,24480.00
2018-04-08T12:31:00.001Z,24384.00
2018-04-08T12:33:00.111Z,24640.00
2018-04-08T12:34:00.189Z,23232.00
2018-04-08T12:35:00.203Z,23296.00
2018-04-08T12:36:00.262Z,23808.00
2018-04-08T12:37:00.330Z,23712.00
2018-04-08T12:38:00.371Z,24384.00
2018-04-08T12:39:00.420Z,27456.00
2018-04-08T12:40:00.564Z,29408.00
2018-04-08T12:41:00.530Z,30656.00
2018-04-08T12:42:00.593Z,34080.00
2018-04-08T12:43:00.642Z,34080.00
2018-04-08T12:44:00.681Z,31904.00
2018-04-08T12:45:00.733Z,29760.00
2018-04-08T12:46:00.772Z,29024.00
2018-04-08T12:47:00.828Z,28768.00
2018-04-08T12:48:00.889Z,28064.00
2018-04-08T12:49:00.945Z,28864.00
2018-04-08T12:50:01.093Z,30080.00
2018-04-08T12:51:01.039Z,29760.00
2018-04-08T12:52:01.099Z,28896.00
2018-04-08T12:54:01.221Z,24064.00
2018-04-08T12:55:01.265Z,23168.00
2018-04-08T12:56:01.383Z,22240.00
2018-04-08T12:57:01.375Z,21216.00
2018-04-08T12:58:01.392Z,23264.00
2018-04-08T12:59:01.447Z,27008.00
2018-04-08T13:00:01.518Z,28416.00
2018-04-08T13:01:01.647Z,27008.00
2018-04-08T13:02:01.593Z,24800.00
2018-04-08T13:03:01.679Z,25184.00
2018-04-08T13:04:01.700Z,27488.00
2018-04-08T13:05:01.765Z,30688.00
2018-04-08T13:06:01.800Z,28640.00
2018-04-08T13:07:01.978Z,26944.00
2018-04-08T13:08:01.903Z,27392.00
2018-04-08T13:09:02.164Z,30656.00
2018-04-08T13:10:02.010Z,36352.00
2018-04-08T13:11:02.083Z,34496.00
2018-04-08T13:12:02.115Z,34880.00
2018-04-08T13:13:02.157Z,37504.00